ראשי / חיפושים אחרונים

חיפושים אחרונים

לוחית
סוג רכב
דגם
שנה
תאריך חיפוש
שעת חיפוש
92836301 קיה קוריאה הדרומית OPTIMA 2015 02/09/2026 04:22:32
4217312 סיאט ספרד IBIZA 2013 02/09/2026 04:22:31
1076529 ניסאן יפן ALMERA 1997 02/09/2026 04:22:31
26590002 אלפא רומיאו איטליה STELVIO 2020 02/09/2026 04:22:30
87437501 מיצובישי תאילנד SPACE STAR 2020 02/09/2026 04:22:30
65022501 פיג'ו צרפת 2008 2019 02/09/2026 04:22:28
12373603 קוואסאקי תאילנ - 2022 02/09/2026 04:22:27
32874904 אטלס נגררים - 2025 02/09/2026 04:22:27
70301803 ניסאן יפן X-TRAIL HYBRID 2024 02/09/2026 04:22:26
9914572 קרייזלר ארהב" - 2011 02/09/2026 04:22:25
3667430 ב מ וו גרמניה 520I 2017 02/09/2026 04:22:24
3667430 ב מ וו גרמניה 520I 2017 02/09/2026 04:22:24
1669532 יונדאי טורקיה I10 2015 02/09/2026 04:22:24
3836513 מזדה יפן MAZDA 6 2006 02/09/2026 04:22:24
3667430 ב מ וו גרמניה 520I 2017 02/09/2026 04:22:22
3667430 ב מ וו גרמניה 520I 2017 02/09/2026 04:22:22
58053703 גי.אי.סי סין E-JS4 2024 02/09/2026 04:22:21
92729301 מרצדס בנץ גרמנ - 2021 02/09/2026 04:22:21
81301003 סיאט ספרד ARONA 2024 02/09/2026 04:22:20
89364202 הינו יפן - 2022 02/09/2026 04:22:20
64523704 ג'אקו סין JAECOO8 PHEV 2026 02/09/2026 04:22:19
1232539 פיאט טורקיה QUBO 2016 02/09/2026 04:22:19
8930384 מאן אוסטריה - 2017 02/09/2026 04:22:18
3667430 ב מ וו גרמניה 520I 2017 02/09/2026 04:22:18
1029238 קרייזלר ארהב" WRANGLER 2016 02/09/2026 04:22:17
4232962 מזדה יפן MAZDA 3 2007 02/09/2026 04:22:17
4254011 יונדאי הודו I10 2013 02/09/2026 04:22:17
4225760 יונדאי קוריאה הדרומית GETZ 2006 02/09/2026 04:22:17
48694102 קואנג יאנג טיו - 2023 02/09/2026 04:22:12
4281814 יונדאי קוריאה הדרומית ACCENT 2006 02/09/2026 04:22:12
3540913 סיאט ספרד IBIZA 2006 02/09/2026 04:22:11
78797402 מרצדס גרמניה C300 2022 02/09/2026 04:22:10
5996785 קיה קוריאה הדרומית PICANTO 2017 02/09/2026 04:22:09
8410626 סקודה צ'כיה OCTAVIA 2017 02/09/2026 04:22:08
3620552 קיה סלובקיה CEED 2013 02/09/2026 04:22:06
44021103 קיה קוריאה הדרומית SELTOS 2023 02/09/2026 04:22:05
57886401 סיאט ספרד ARONA 2018 02/09/2026 04:22:05
85463601 דוקטי איטליה - 2024 02/09/2026 04:22:05
3528738 אאודי בלגיה A1 2016 02/09/2026 04:22:04
7732918 פולקסווגן ספרד POLO 1999 02/09/2026 04:22:03
5028932 טויוטה טורקיה VERSO 2015 02/09/2026 04:22:02
66517702 טויוטה יפן RAV 4 HYBRID 2021 02/09/2026 04:22:02
5694838 סקודה צ'כיה NEW SUPERB 2017 02/09/2026 04:22:01
1729928 בומברדיה קנדה - 2020 02/09/2026 04:22:00
8991208 טויוטה טורקיה COROLLA 2017 02/09/2026 04:21:58
4275256 פולקסווגן סלובקיה TOUAREG 2004 02/09/2026 04:21:55
7645366 טויוטה יפן COROLLA 2008 02/09/2026 04:21:53
8732437 ניסאן בריטניה QASHQAI 2016 02/09/2026 04:21:51
1325170 קואנג יאנג טיו - 2009 02/09/2026 04:21:50
6233561 סיטרואן צרפת JUMP HDI 2007 02/09/2026 04:21:49
2006635 פולקסווגן גרמנ BORA 2001 02/09/2026 04:21:49
82128302 טויוטה טורקיה COROLLA HSD SDN 2022 02/09/2026 04:21:45
32001801 סי.אף.מוטו.סין - 2018 02/09/2026 04:21:44
3337173 סוזוקי יפן GRAND VITARA 2010 02/09/2026 04:21:42
69288303 ב מ וו ארהב" X4 XDRIVE20I 2024 02/09/2026 04:21:40
6380338 הארלי דיוידסון - 2016 02/09/2026 04:21:40
64523704 ג'אקו סין JAECOO8 PHEV 2026 02/09/2026 04:21:40
2529433 רנו צרפת - 2015 02/09/2026 04:21:39
5611169 ניסאן יפן MURANO 2010 02/09/2026 04:21:38
58792503 ב מ וו גרמניה - 2024 02/09/2026 04:21:37
4476680 סקודה צ'כיה NEW OCTAVIA 2017 02/09/2026 04:21:36
75433103 טויוטה טורקיה C-HR 2024 02/09/2026 04:21:36
9753973 מזארטי איטליה - 2012 02/09/2026 04:21:36
1019335 ניסאן יפן ALMERA 2001 02/09/2026 04:21:35
7662179 טויוטה תאילנד HILUX 2012 02/09/2026 04:21:33
64618003 סרס סין SERES 3 2024 02/09/2026 04:21:32
85301701 קיוואי סין - 2019 02/09/2026 04:21:30
1013452 טויוטה טורקיה VERSO 2013 02/09/2026 04:21:30
4285730 פיאט איטליה - 2014 02/09/2026 04:21:30
1137011 יונדאי צ'כיה I30 2013 02/09/2026 04:21:28
8722163 פיאט איטליה - 2008 02/09/2026 04:21:28
4753680 סקודה צ'כיה SUPERB 2017 02/09/2026 04:21:28
5698237 מרצדס בנץ גרמנ - 2016 02/09/2026 04:21:24
23301601 סיאט צ'כיה ATECA 2017 02/09/2026 04:21:24
58584002 סקודה צ'כיה OCTAVIA 2021 02/09/2026 04:21:20
64523704 ג'אקו סין JAECOO8 PHEV 2026 02/09/2026 04:21:20
8620471 טויוטה בריטניה AVENSIS 2010 02/09/2026 04:21:20
2273268 סיטרואן ספרד C4 PICASSO 2009 02/09/2026 04:21:20
6531037 יונדאי צ'כיה TUCSON 2016 02/09/2026 04:21:20
9156666 טויוטה בריטניה AVENSIS 2009 02/09/2026 04:21:20
2846960 סובארו יפן IMPREZA 2006 02/09/2026 04:21:20
13522303 גופל - 2022 02/09/2026 04:21:20
894156 לוטוס_אנגליה - 1965 02/09/2026 04:21:20
7723764 סובארו יפן IMPREZA B3 2008 02/09/2026 04:21:12
57270302 פיג'ו צרפת 3008 2021 02/09/2026 04:21:12
5899131 הונדה יפן INSIGHT HYBRID 2014 02/09/2026 04:21:09
1095862 טויוטה יפן COROLLA 2007 02/09/2026 04:21:08
4297714 יונדאי קוריאה הדרומית TUCSON 2006 02/09/2026 04:21:06
57656202 סיטרואן פורטוגל BERLINGO 2021 02/09/2026 04:21:06
3102676 מרצדס גרמניה E350 2012 02/09/2026 04:21:06
23557503 סקודה צ'כיה KAMIQ 2022 02/09/2026 04:21:04
90647701 שברולט ארהב" - 2018 02/09/2026 04:21:03
80917901 טויוטה טורקיה COROLLA SDN 2019 02/09/2026 04:21:01
8456084 ימהה יפן - 2018 02/09/2026 04:20:59
2865631 יונדאי טורקיה I20 2014 02/09/2026 04:20:58
1138051 סיטרואן ספרד BERLINGO 2003 02/09/2026 04:20:56
9432567 סוזוקי-יפן - 2009 02/09/2026 04:20:55
2906060 סובארו יפן B4 2006 02/09/2026 04:20:51
63074101 סיאט ספרד LEON 2019 02/09/2026 04:20:51
53268403 ימהה יפן - 2024 02/09/2026 04:20:50
5222260 אלפא רומיאו איטליה BRERA3.2 JTS 2006 02/09/2026 04:20:48
7446723 טויוטה יפן COROLLA 2001 02/09/2026 04:20:47
78761202 מרצדס הונגריה CLA250E 2022 02/09/2026 04:20:45
1113579 פיאט איטליה BRAVO 1.4 2011 02/09/2026 04:20:44
76666603 אקספנג סין G6 2024 02/09/2026 04:20:43
48801203 אופל ספרד CORSA 2023 02/09/2026 04:20:42
7954776 פולקסווגן ספרד POLO 2012 02/09/2026 04:20:42
5801613 סוזוקי הונגריה SWIFT 2012 02/09/2026 04:20:41
18572102 קיה קוריאה הדרומית SORENTO 2020 02/09/2026 04:20:41
9263906 הונדה ארהב" - 1991 02/09/2026 04:20:41
8576071 טויוטה יפן COROLLA 2010 02/09/2026 04:20:37
1012231 מרצדס גרמניה S500 LONG 2014 02/09/2026 04:20:35
5337131 הונדה טורקיה CIVIC 2014 02/09/2026 04:20:35
3791217 הונדה יפן CIVIC 1998 02/09/2026 04:20:34
4256113 שברולט ארהב" - 2012 02/09/2026 04:20:32
11270404 מרצדס גרמניה AMG SL43 2024 02/09/2026 04:20:31
1025831 מרצדס הונגריה CLA200 2014 02/09/2026 04:20:31
92168401 טויוטה טורקיה COROLLA 2016 02/09/2026 04:20:28
13357402 סקודה צ'כיה OCTAVIA 2020 02/09/2026 04:20:28
2388664 יונדאי קוריאה הדרומית TUCSON 2008 02/09/2026 04:20:22
65832602 טויוטה יפן PRIUS PLUS 2021 02/09/2026 04:20:20
1289511 יונדאי טורקיה I20 2013 02/09/2026 04:20:19
6455076 סיאט ספרד IBIZA 2012 02/09/2026 04:20:19
78915203 סאן יאנג טיואן - 2024 02/09/2026 04:20:18
71748103 יונדאי קוריאה הדרומית GENESIS GV60 2025 02/09/2026 04:20:15
2955311 יונדאי קוריאה הדרומית I35 2013 02/09/2026 04:20:12
6326072 מיצובישי יפן LANCER 2010 02/09/2026 04:20:05
1106037 טויוטה צרפת YARIS 2016 02/09/2026 04:20:04
4709063 פורד תורכיה TOURNEO CONNECT 2008 02/09/2026 04:20:04
53373002 פולקסווגן ספרד T-CROSS 2021 02/09/2026 04:20:03
87498502 טויוטה צ'כיה AYGO X 2022 02/09/2026 04:20:02
2880079 ניסאן יפן INFINITI 2012 02/09/2026 04:20:02
1063260 טויוטה יפן COROLLA 2006 02/09/2026 04:19:58
7960579 טויוטה יפן PRIUS HYBRID 2012 02/09/2026 04:19:58
9588035 פיאט איטליה PUNT0 2002 02/09/2026 04:19:56
1029085 קיה קוריאה הדרומית FORTE 2016 02/09/2026 04:19:55
81494401 מאן אוסטריה - 2020 02/09/2026 04:19:54
1157064 ביואיק ארהב" LUCERNE 2007 02/09/2026 04:19:50
13106801 קיה סלובקיה SPORTAGE 2017 02/09/2026 04:19:49
1061784 ניסאן הודו MICRA 2017 02/09/2026 04:19:43
2854568 פיג'ו צרפת 207 2009 02/09/2026 04:19:41
42092104 יונדאי קוריאה הדרומית TUCSON HYBRID 2026 02/09/2026 04:19:39
1571773 מיצובישי יפן GRANDIS 2010 02/09/2026 04:19:36
2698811 יונדאי קוריאה הדרומית I35 2013 02/09/2026 04:19:35
57072303 אורה סין ORA FUNKY CAT 2024 02/09/2026 04:19:33
6441761 הונדה יפן CIVIC 2007 02/09/2026 04:19:31
45723103 טויוטה יפן CAMRY HYBRID 2023 02/09/2026 04:19:28
45902303 טויוטה צרפת YARIS CROSS HSD 2023 02/09/2026 04:19:27
23326401 פולקסווגן גרמניה GOLF 2017 02/09/2026 04:19:27
3071032 שברולט קוריאה הדרומית SPARK 2015 02/09/2026 04:19:27
78835702 יונדאי קוריאה הדרומית GENESIS GV80 2022 02/09/2026 04:19:25
1041011 יונדאי קוריאה הדרומית IX35 2012 02/09/2026 04:19:25
1041428 הארלי דיוידסון - 2017 02/09/2026 04:19:24
21973403 טויוטה צ'כיה AYGO X 2022 02/09/2026 04:19:23
46030301 טויוטה בריטניה AURIS HYBRID 2019 02/09/2026 04:19:23
37396501 סקודה צ'כיה KODIAQ 2018 02/09/2026 04:19:23
82680001 מרצדס גרמניה E300E 2020 02/09/2026 04:19:23
4632929 רנו ספרד CLIO B 2001 02/09/2026 04:19:22
8414060 סוזוקי יפן LIANA 2007 02/09/2026 04:19:18
69057203 קיה קוריאה הדרומית PICANTO 2024 02/09/2026 04:19:18
2674832 שברולט קוריאה הדרומית CRUZE 2014 02/09/2026 04:19:14
8481715 שברולט ארה"ב - 2002 02/09/2026 04:19:13
1173735 רנו ספרד MEGANE 2001 02/09/2026 04:19:10
1508530 סובארו יפן IMPREZA 2015 02/09/2026 04:19:10
35872001 פיאט איטליה - 2017 02/09/2026 04:19:09
1221273 יונדאי צ'כיה I30 2010 02/09/2026 04:19:08
9580713 שברולט קוריאה הדרומית SONIC LT 2013 02/09/2026 04:19:07
1290834 מיצובישי יפן OUTLANDER 2015 02/09/2026 04:19:07
8986472 ניסאן הודו MICRA 2011 02/09/2026 04:19:07
4746976 מיצובישי תאילנד L200 2012 02/09/2026 04:19:07
1032050 טויוטה יפן YARIS 2002 02/09/2026 04:19:04
1390234 מיצובישי יפן OUTLANDER 2015 02/09/2026 04:19:03
6556261 סיטרואן צרפת JUMPY 2007 02/09/2026 04:19:02
2470723 סובארו יפן IMPREZA TUR NEW 2001 02/09/2026 04:19:02
54777002 סיאט ספרד ARONA 2021 02/09/2026 04:19:01
89581602 יונדאי טורקיה I20 2022 02/09/2026 04:18:58
7910972 רנו צרפת KANGOO 2 2010 02/09/2026 04:18:58
19494102 טויוטה טורקיה C-HR HYBRID 2020 02/09/2026 04:18:58
4702466 יונדאי קוריאה הדרומית I30 2008 02/09/2026 04:18:57
86051801 ניסאן צרפת MICRA 2020 02/09/2026 04:18:55
7556353 סיאט ספרד IBIZA 2015 02/09/2026 04:18:53
1272930 סובארו יפן FORESTER 2015 02/09/2026 04:18:53
1201171 פולקסווגן מקסיקה JETTA 2010 02/09/2026 04:18:50
2830309 סקודה צ'כיה ואן פלוס 1999 02/09/2026 04:18:50
3286223 סובארו יפן IMPREZA NEW 2004 02/09/2026 04:18:50
7542784 רנו טורקיה GRAND COUPE 2017 02/09/2026 04:18:49
32071301 אפריליה איטליה - 2018 02/09/2026 04:18:46
83225601 ניסאן יפן X-TRAIL 2019 02/09/2026 04:18:46
4306066 מיצובישי יפן LANCER 2008 02/09/2026 04:18:44
50498701 יונדאי קוריאה הדרומית IONIQ HYBRID 2018 02/09/2026 04:18:44
54188401 מרצדס בנץ גרמנ - 2019 02/09/2026 04:18:43
4569136 טויוטה יפן YARIS 2002 02/09/2026 04:18:42
32167504 סקודה צ'כיה SUPERB 2025 02/09/2026 04:18:42
3777765 קאדילאק ארהב" CTS 2008 02/09/2026 04:18:41
10836402 פיג'ו ספרד 2008 2020 02/09/2026 04:18:41
7279255 יונדאי קוריאה הדרומית IONIQ HYBRID 2017 02/09/2026 04:18:38
25966004 שברולט ארהב" - 2025 02/09/2026 04:18:37
4437013 שברולט ארהב" CRUZE 2012 02/09/2026 04:18:36
60696403 סקודה צ'כיה SCALA 2024 02/09/2026 04:18:35
4494138 אאודי גרמניה A7 2016 02/09/2026 04:18:32
וואטסאפ